Share

Sitka, AK

Kake (PAFE) Elev 171 ft | 56.96 °N, 133.91 °W | Change Station

Current weather conditions updated 249 days ago

Rain
Rain
50 °F
Feels Like 50 °F
N
15
Wind Variable Wind from ENE
Gusts mph
Sunrise 5:42 AM
Sunset 8:20 PM
Moon Waning Gibbous

Today is forecast to be nearly the same temperature as yesterday. Occasional showers possible.

Pressure 30.07 in
Visibility 10.0 miles
Clouds Overcast 400 ft
Dew Point 37 °F
Humidity 59%
Rainfall 0.00 in
Snow Depth Not available.
UV 0 out of 16
Pollen Not available.
Air Quality Not available.
Flu Activity Sporadic
METAR PAFE 131356Z AUTO 13006KT 10SM OVC004 12/10 A3007 RMK AO1

More Conditions Fewer Conditions

Pressure 30.07 in
Visibility 10.0 miles
Clouds Overcast 400 ft
Dew Point 37 °F
Humidity 59%
Rainfall 0.00 in
Snow Depth Not available.
UV 0 out of 16
Pollen Not available.
Air Quality Not available.
Flu Activity Sporadic
METAR PAFE 131356Z AUTO 13006KT 10SM OVC004 12/10 A3007 RMK AO1

More Conditions Fewer Conditions

10-Day Weather Forecast

Almanac

Astronomy

Apr. 19, 2014 Rise Set
Actual Time 5:42 AM AKDT 8:20 PM AKDT
Civil Twilight 4:59 AM AKDT 9:02 PM AKDT
Nautical Twilight 4:03 AM AKDT 9:59 PM AKDT
Astronomical Twilight 2:51 AM AKDT 11:14 PM AKDT
Moon 12:39 AM AKDT 8:39 AM AKDT
Length of Visible Light 16h 03m
Length of Day
14h 37m
Tomorrow will be 4m 42s longer.
Waning Gibbous, 77% of the Moon is Illuminated
Today
Waning Gibbous
Apr 22
Last Quarter
Apr 29
New
May 6
First Quarter
May 14
Full

Today's Extremes

State Highs State Lows

Community

  • Skirting the Horizon
    Skirting the Horizon
  • Piriapolis
    Piriapolis
  • A Glorious Morning
    A Glorious Morning
  • Tender Rays Of Hope
    Tender Rays Of Hope
  • Bleeding Hearts
    Bleeding Hearts

WunderPhotos

Upload Photos

1,702,892 photos uploaded!

WunderBlogs® & News

Nearby

Snow Depth

Station Depth Elevation
Long Lake 98 in 820 ft
Upper Tsaina River 53 in 1750 ft
Moraine 9 in 2100 ft
Grandview 35 in 1100 ft
Grouse Creek Divide 25 in 700 ft

Coastal Water Temperatures

Place Temperature
No Stations Reporting

Earthquake Activity

City Distance Mag. Time & Date
No recent earthquake activity has been reported nearby.
Minimum magnitude displayed is 2.5.

Nearby Weather Stations

Station Location Temp. Windchill Dew Point Humidity Wind Precip. Elev Updated Type
CRN USGS SITKA MAGNETIC SITKA 1 NE AK , Sitka, AK 49 °F 49 °F - - North  at  - 0.00 in / hr 78 ft 12:15 PM AKDT MADIS
HADS TAKATZ C NR BARANOF AK , Sitka, AK 44 °F 44 °F - - North  at  - 0.00 in / hr 227 ft 12:00 PM AKDT MADIS

Show More Stations Show Fewer Stations

What do you think?

We're not finished. Please let us know what you like, what you don't like, and what you are still missing.